createdAt,value
2018-11-05T00:00:36.806Z,98524.74
2018-11-05T00:03:05.582Z,98521.87
2018-11-05T00:05:33.608Z,98514.89
2018-11-05T00:08:01.629Z,98515.86
2018-11-05T00:10:29.760Z,98522.00
2018-11-05T00:12:57.829Z,98520.80
2018-11-05T00:15:25.898Z,98518.62
2018-11-05T00:17:53.944Z,98506.48
2018-11-05T00:20:21.988Z,98503.48
2018-11-05T00:22:50.012Z,98507.92
2018-11-05T00:25:18.140Z,98500.56
2018-11-05T00:27:46.171Z,98498.42
2018-11-05T00:30:14.910Z,98491.93
2018-11-05T00:32:43.585Z,98496.37
2018-11-05T00:35:12.773Z,98492.53
2018-11-05T00:37:40.811Z,98496.11
2018-11-05T00:40:11.176Z,98484.84
2018-11-05T00:42:39.257Z,98476.91
2018-11-05T00:45:08.384Z,98475.59
2018-11-05T00:47:36.590Z,98468.26
2018-11-05T00:50:06.822Z,98459.48
2018-11-05T00:52:35.111Z,98466.55
2018-11-05T00:55:03.188Z,98467.19
2018-11-05T00:57:31.327Z,98461.05
2018-11-05T00:59:59.838Z,98469.10
2018-11-05T01:02:28.033Z,98469.23
2018-11-05T01:04:56.097Z,98468.37
2018-11-05T01:07:24.179Z,98467.53
2018-11-05T01:09:52.259Z,98467.19
2018-11-05T01:12:20.328Z,98460.20
2018-11-05T01:14:48.363Z,98473.41
2018-11-05T01:17:16.412Z,98462.02
2018-11-05T01:19:44.663Z,98464.79
2018-11-05T01:22:12.820Z,98459.63
2018-11-05T01:24:40.849Z,98460.09
2018-11-05T01:27:08.947Z,98464.53
2018-11-05T01:29:36.979Z,98460.22
2018-11-05T01:32:05.512Z,98465.12
2018-11-05T01:34:33.536Z,98464.31
2018-11-05T01:37:01.646Z,98459.63
2018-11-05T01:39:29.700Z,98453.48
2018-11-05T01:41:57.764Z,98444.70
2018-11-05T01:44:25.783Z,98440.27
2018-11-05T01:46:54.051Z,98441.59
2018-11-05T01:49:22.107Z,98434.64
2018-11-05T01:51:50.171Z,98432.12
2018-11-05T01:54:18.217Z,98425.13
2018-11-05T01:56:47.039Z,98427.30
2018-11-05T01:59:15.101Z,98433.06
2018-11-05T02:01:43.137Z,98430.08
2018-11-05T02:04:11.207Z,98421.77
2018-11-05T02:06:39.284Z,98419.12
2018-11-05T02:09:07.763Z,98413.14
2018-11-05T02:11:35.803Z,98412.17
2018-11-05T02:14:03.919Z,98408.20
2018-11-05T02:16:31.992Z,98405.31
2018-11-05T02:19:00.050Z,98410.59
2018-11-05T02:21:28.120Z,98416.86
2018-11-05T02:23:56.178Z,98415.19
2018-11-05T02:26:24.200Z,98413.95
2018-11-05T02:28:52.441Z,98421.41
2018-11-05T02:31:20.459Z,98417.92
2018-11-05T02:33:48.501Z,98410.12
2018-11-05T02:36:16.798Z,98411.09
2018-11-05T02:38:44.849Z,98405.46
2018-11-05T02:41:13.291Z,98413.39
2018-11-05T02:43:41.408Z,98412.16
2018-11-05T02:46:09.460Z,98415.30
2018-11-05T02:48:37.490Z,98410.97
2018-11-05T02:51:05.559Z,98405.33
2018-11-05T02:53:33.586Z,98404.48
2018-11-05T02:56:01.631Z,98401.02
2018-11-05T02:58:29.752Z,98394.04
2018-11-05T03:00:58.182Z,98391.87
2018-11-05T03:03:26.297Z,98386.58
2018-11-05T03:05:54.363Z,98384.06
2018-11-05T03:08:22.424Z,98381.80
2018-11-05T03:10:50.546Z,98387.69
2018-11-05T03:13:19.515Z,98383.38
2018-11-05T03:15:47.551Z,98371.48
2018-11-05T03:18:15.586Z,98374.22
2018-11-05T03:20:43.617Z,98380.35
2018-11-05T03:23:11.680Z,98388.75
2018-11-05T03:25:39.691Z,98380.95
2018-11-05T03:28:07.735Z,98372.20
2018-11-05T03:30:35.790Z,98366.67
2018-11-05T03:33:03.862Z,98361.27
2018-11-05T03:35:31.904Z,98369.19
2018-11-05T03:37:59.926Z,98367.52
2018-11-05T03:40:27.952Z,98367.86
2018-11-05T03:42:56.056Z,98367.98
2018-11-05T03:45:24.085Z,98364.03
2018-11-05T03:47:52.113Z,98365.82
2018-11-05T03:50:20.500Z,98368.97
2018-11-05T03:52:48.791Z,98362.36
2018-11-05T03:55:17.493Z,98369.44
2018-11-05T03:57:45.575Z,98364.16
2018-11-05T04:00:14.865Z,98362.95
2018-11-05T04:02:42.892Z,98366.06
2018-11-05T04:05:11.054Z,98365.59
2018-11-05T04:07:39.811Z,98356.82
2018-11-05T04:10:08.790Z,98359.00
2018-11-05T04:12:36.931Z,98365.59
2018-11-05T04:15:05.124Z,98374.84
2018-11-05T04:17:33.270Z,98385.87
2018-11-05T04:20:01.494Z,98383.23
2018-11-05T04:22:29.624Z,98374.47
2018-11-05T04:24:57.670Z,98367.86
2018-11-05T04:27:25.805Z,98371.48
2018-11-05T04:29:53.903Z,98374.12
2018-11-05T04:32:23.015Z,98376.76
2018-11-05T04:34:51.143Z,98378.08
2018-11-05T04:37:19.255Z,98373.27
2018-11-05T04:39:47.354Z,98368.95
2018-11-05T04:42:15.542Z,98368.83
2018-11-05T04:44:43.670Z,98370.16
2018-11-05T04:47:11.795Z,98367.98
2018-11-05T04:49:39.994Z,98365.00
2018-11-05T04:52:08.043Z,98366.31
2018-11-05T04:54:36.330Z,98362.48
2018-11-05T04:57:04.431Z,98358.86
2018-11-05T04:59:32.543Z,98353.11
2018-11-05T05:02:00.730Z,98355.28
2018-11-05T05:04:28.850Z,98354.91
2018-11-05T05:06:57.000Z,98349.15
2018-11-05T05:09:25.728Z,98348.30
2018-11-05T05:11:53.831Z,98350.94
2018-11-05T05:14:21.965Z,98346.98
2018-11-05T05:16:50.062Z,98342.08
2018-11-05T05:19:18.170Z,98335.09
2018-11-05T05:21:46.282Z,98339.05
2018-11-05T05:24:14.391Z,98335.94
2018-11-05T05:26:42.490Z,98339.05
2018-11-05T05:29:10.714Z,98336.92
2018-11-05T05:31:38.770Z,98330.31
2018-11-05T05:34:07.053Z,98323.71
2018-11-05T05:36:35.099Z,98320.69
2018-11-05T05:39:03.797Z,98320.44
2018-11-05T05:41:31.871Z,98334.28
2018-11-05T05:43:59.936Z,98349.27
2018-11-05T05:46:28.156Z,98355.03
2018-11-05T05:48:56.792Z,98360.31
2018-11-05T05:51:24.843Z,98370.02
2018-11-05T05:53:52.950Z,98371.34
2018-11-05T05:56:21.156Z,98371.84
2018-11-05T05:58:49.266Z,98370.87
2018-11-05T06:01:17.359Z,98370.14
2018-11-05T06:03:45.443Z,98372.20
2018-11-05T06:06:13.582Z,98365.59
2018-11-05T06:08:41.582Z,98368.23
2018-11-05T06:11:09.675Z,98366.44
2018-11-05T06:13:37.747Z,98364.27
2018-11-05T06:16:05.884Z,98360.31
2018-11-05T06:18:33.978Z,98364.27
2018-11-05T06:21:02.056Z,98363.42
2018-11-05T06:23:30.186Z,98364.27
2018-11-05T06:25:58.656Z,98362.48
2018-11-05T06:28:26.778Z,98369.08
2018-11-05T06:30:54.773Z,98363.33
2018-11-05T06:33:22.832Z,98360.69
2018-11-05T06:35:51.114Z,98360.69
2018-11-05T06:38:19.319Z,98360.19
2018-11-05T06:40:47.379Z,98358.05
2018-11-05T06:43:15.542Z,98355.41
2018-11-05T06:45:43.721Z,98355.88
2018-11-05T06:48:11.765Z,98350.22
2018-11-05T06:50:39.830Z,98345.66
2018-11-05T06:53:07.923Z,98342.20
2018-11-05T06:55:36.011Z,98343.52
2018-11-05T06:58:04.306Z,98341.22
2018-11-05T07:00:32.404Z,98359.24
2018-11-05T07:03:00.864Z,98370.16
2018-11-05T07:05:28.995Z,98372.33
2018-11-05T07:07:57.157Z,98376.63
2018-11-05T07:10:25.255Z,98367.86
2018-11-05T07:12:53.402Z,98370.03
2018-11-05T07:15:21.559Z,98364.28
2018-11-05T07:17:50.202Z,98369.56
2018-11-05T07:20:19.509Z,98372.20
2018-11-05T07:22:48.491Z,98366.54
2018-11-05T07:25:16.702Z,98380.13
2018-11-05T07:27:45.930Z,98386.34
2018-11-05T07:30:16.005Z,98389.37
2018-11-05T07:32:44.320Z,98391.28
2018-11-05T07:35:13.527Z,98375.91
2018-11-05T07:37:42.099Z,98371.13
2018-11-05T07:40:11.408Z,98359.59
2018-11-05T07:42:39.717Z,98368.36
2018-11-05T07:45:09.783Z,98365.22
2018-11-05T07:47:37.871Z,98367.39
2018-11-05T07:50:08.462Z,98358.62
2018-11-05T07:52:36.483Z,98357.30
2018-11-05T07:55:05.203Z,98359.94
2018-11-05T07:57:33.326Z,98359.47
2018-11-05T08:00:01.414Z,98364.41
2018-11-05T08:02:29.502Z,98361.26
2018-11-05T08:04:57.590Z,98360.31
2018-11-05T08:07:25.807Z,98351.54
2018-11-05T08:09:53.843Z,98348.05
2018-11-05T08:12:21.963Z,98353.24
2018-11-05T08:14:50.018Z,98351.92
2018-11-05T08:17:18.067Z,98344.81
2018-11-05T08:19:46.134Z,98344.94
2018-11-05T08:22:14.178Z,98337.86
2018-11-05T08:24:42.258Z,98337.73
2018-11-05T08:27:10.310Z,98333.78
2018-11-05T08:29:38.388Z,98343.87
2018-11-05T08:32:07.270Z,98336.42
2018-11-05T08:34:35.379Z,98334.63
2018-11-05T08:37:03.503Z,98332.11
2018-11-05T08:39:31.655Z,98329.81
2018-11-05T08:41:59.747Z,98327.52
2018-11-05T08:44:27.847Z,98316.95
2018-11-05T08:46:56.021Z,98328.37
2018-11-05T08:49:23.965Z,98329.69
2018-11-05T08:51:52.235Z,98321.77
2018-11-05T08:54:20.160Z,98317.80
2018-11-05T08:56:48.218Z,98318.15
2018-11-05T08:59:16.284Z,98322.11
2018-11-05T09:01:44.390Z,98330.41
2018-11-05T09:04:12.598Z,98332.20
2018-11-05T09:06:40.722Z,98325.25
2018-11-05T09:09:09.407Z,98307.58
2018-11-05T09:11:38.054Z,98305.32
2018-11-05T09:14:05.684Z,98297.73
2018-11-05T09:16:33.774Z,98299.91
2018-11-05T09:19:01.926Z,98301.58
2018-11-05T09:21:29.994Z,98303.40
2018-11-05T09:23:58.053Z,98303.27
2018-11-05T09:26:26.117Z,98290.91
2018-11-05T09:28:54.215Z,98297.98
2018-11-05T09:31:22.274Z,98307.70
2018-11-05T09:33:50.379Z,98308.09
2018-11-05T09:36:18.439Z,98313.71
2018-11-05T09:38:46.670Z,98312.39
2018-11-05T09:41:14.744Z,98308.43
2018-11-05T09:43:42.819Z,98316.70
2018-11-05T09:46:11.712Z,98307.45
2018-11-05T09:48:39.811Z,98316.10
2018-11-05T09:51:07.872Z,98322.83
2018-11-05T09:53:35.959Z,98316.95
2018-11-05T09:56:04.249Z,98314.78
2018-11-05T09:58:32.300Z,98318.15
2018-11-05T10:01:00.430Z,98304.81
2018-11-05T10:03:28.808Z,98295.22
2018-11-05T10:05:56.619Z,98299.05
2018-11-05T10:08:24.747Z,98288.95
2018-11-05T10:10:52.933Z,98286.56
2018-11-05T10:13:20.983Z,98302.30
2018-11-05T10:15:49.099Z,98302.77
2018-11-05T10:18:17.223Z,98304.09
2018-11-05T10:20:45.325Z,98299.14
2018-11-05T10:23:13.427Z,98299.52
2018-11-05T10:25:41.568Z,98294.23
2018-11-05T10:28:09.875Z,98298.55
2018-11-05T10:30:37.971Z,98294.83
2018-11-05T10:33:06.123Z,98279.80
2018-11-05T10:35:39.678Z,98280.64
2018-11-05T10:38:07.807Z,98278.84
2018-11-05T10:40:36.107Z,98280.52
2018-11-05T10:43:04.384Z,98276.42
2018-11-05T10:45:32.488Z,98287.13
2018-11-05T10:48:00.623Z,98291.80
2018-11-05T10:50:28.937Z,98290.14
2018-11-05T10:52:56.999Z,98289.16
2018-11-05T10:55:25.120Z,98286.52
2018-11-05T10:57:53.229Z,98277.14
2018-11-05T11:00:27.059Z,98279.31
2018-11-05T11:03:00.474Z,98266.44
2018-11-05T11:05:29.538Z,98275.22
2018-11-05T11:07:58.494Z,98266.81
2018-11-05T11:10:27.405Z,98268.83
2018-11-05T11:12:55.836Z,98261.27
2018-11-05T11:15:23.968Z,98268.61
2018-11-05T11:17:52.268Z,98269.92
2018-11-05T11:20:20.347Z,98272.44
2018-11-05T11:22:48.395Z,98268.81
2018-11-05T11:25:17.052Z,98261.95
2018-11-05T11:27:45.189Z,98261.00
2018-11-05T11:30:14.280Z,98263.17
2018-11-05T11:32:42.691Z,98260.02
2018-11-05T11:35:11.452Z,98259.21
2018-11-05T11:37:39.745Z,98260.88
2018-11-05T11:40:14.195Z,98243.11
2018-11-05T11:42:43.171Z,98250.17
2018-11-05T11:45:11.867Z,98243.09
2018-11-05T11:47:40.015Z,98239.94
2018-11-05T11:50:09.604Z,98236.48
2018-11-05T11:52:37.872Z,98237.67
2018-11-05T11:55:07.312Z,98233.58
2018-11-05T11:57:35.487Z,98225.30
2018-11-05T12:00:03.647Z,98226.84
2018-11-05T12:02:31.798Z,98220.70
2018-11-05T12:04:59.990Z,98225.98
2018-11-05T12:07:28.136Z,98217.72
2018-11-05T12:09:56.379Z,98223.34
2018-11-05T12:12:24.559Z,98224.53
2018-11-05T12:14:52.874Z,98223.12
2018-11-05T12:17:20.783Z,98218.77
2018-11-05T12:19:49.846Z,98222.74
2018-11-05T12:22:18.058Z,98212.03
2018-11-05T12:24:46.179Z,98210.71
2018-11-05T12:27:14.320Z,98200.52
2018-11-05T12:29:42.442Z,98191.26
2018-11-05T12:32:10.630Z,98188.38
2018-11-05T12:34:38.703Z,98205.80
2018-11-05T12:37:06.891Z,98205.93
2018-11-05T12:39:34.994Z,98201.33
2018-11-05T12:42:03.143Z,98207.94
2018-11-05T12:44:31.259Z,98201.45
2018-11-05T12:46:59.355Z,98203.97
2018-11-05T12:49:27.479Z,98204.34
2018-11-05T12:51:55.951Z,98214.08
2018-11-05T12:54:24.047Z,98208.78
2018-11-05T12:56:52.155Z,98212.14
2018-11-05T12:59:20.261Z,98204.55
2018-11-05T13:01:48.367Z,98189.54
2018-11-05T13:04:16.628Z,98200.97
2018-11-05T13:06:44.683Z,98196.02
2018-11-05T13:09:12.814Z,98191.95
2018-11-05T13:11:40.942Z,98185.20
2018-11-05T13:14:09.043Z,98183.89
2018-11-05T13:16:37.243Z,98181.11
2018-11-05T13:19:05.564Z,98176.19
2018-11-05T13:21:33.699Z,98177.99
2018-11-05T13:24:01.809Z,98178.36
2018-11-05T13:26:29.942Z,98183.66
2018-11-05T13:28:58.035Z,98186.16
2018-11-05T13:31:26.232Z,98178.70
2018-11-05T13:33:54.580Z,98164.50
2018-11-05T13:36:22.767Z,98161.39
2018-11-05T13:38:50.873Z,98152.12
2018-11-05T13:41:19.012Z,98161.76
2018-11-05T13:43:47.154Z,98154.43
2018-11-05T13:46:15.774Z,98157.42
2018-11-05T13:48:43.824Z,98146.84
2018-11-05T13:51:11.559Z,98137.25
2018-11-05T13:53:39.663Z,98135.79
2018-11-05T13:56:07.772Z,98134.60
2018-11-05T13:58:35.983Z,98134.60
2018-11-05T14:01:04.403Z,98138.06
2018-11-05T14:03:32.491Z,98137.25
2018-11-05T14:06:00.592Z,98142.53
2018-11-05T14:08:28.657Z,98145.18
2018-11-05T14:10:56.786Z,98146.12
2018-11-05T14:13:24.797Z,98143.98
2018-11-05T14:15:52.969Z,98144.47
2018-11-05T14:18:21.291Z,98143.14
2018-11-05T14:20:49.253Z,98138.80
2018-11-05T14:23:17.419Z,98139.78
2018-11-05T14:25:45.582Z,98134.97
2018-11-05T14:28:13.818Z,98134.63
2018-11-05T14:30:41.695Z,98126.33
2018-11-05T14:33:09.756Z,98127.27
2018-11-05T14:35:37.843Z,98128.97
2018-11-05T14:38:06.185Z,98125.48
2018-11-05T14:40:34.267Z,98122.12
2018-11-05T14:43:02.511Z,98123.45
2018-11-05T14:45:30.536Z,98125.37
2018-11-05T14:47:58.593Z,98127.55
2018-11-05T14:50:26.651Z,98113.98
2018-11-05T14:52:54.765Z,98114.94
2018-11-05T14:55:22.859Z,98116.86
2018-11-05T14:57:51.991Z,98113.41
2018-11-05T15:00:21.801Z,98120.48
2018-11-05T15:02:50.806Z,98124.45
2018-11-05T15:05:18.938Z,98128.05
2018-11-05T15:07:47.943Z,98123.27
2018-11-05T15:10:18.567Z,98126.86
2018-11-05T15:12:46.771Z,98133.47
2018-11-05T15:15:15.477Z,98132.78
2018-11-05T15:17:44.086Z,98142.52
2018-11-05T15:20:14.853Z,98143.45
2018-11-05T15:22:42.802Z,98141.80
2018-11-05T15:25:11.455Z,98149.38
2018-11-05T15:27:40.311Z,98144.91
2018-11-05T15:30:10.915Z,98143.38
2018-11-05T15:32:39.937Z,98144.70
2018-11-05T15:35:08.879Z,98141.69
2018-11-05T15:37:37.733Z,98143.52
2018-11-05T15:40:06.503Z,98147.95
2018-11-05T15:42:35.038Z,98142.80
2018-11-05T15:45:03.424Z,98139.69
2018-11-05T15:47:31.823Z,98141.00
2018-11-05T15:50:00.106Z,98144.59
2018-11-05T15:52:28.747Z,98146.89
2018-11-05T15:54:56.566Z,98139.44
2018-11-05T15:57:24.684Z,98138.59
2018-11-05T15:59:52.796Z,98144.73
2018-11-05T16:02:21.401Z,98143.54
2018-11-05T16:04:49.724Z,98142.34
2018-11-05T16:07:18.080Z,98143.67
2018-11-05T16:09:46.331Z,98149.09
2018-11-05T16:12:14.448Z,98155.19
2018-11-05T16:14:42.609Z,98157.96
2018-11-05T16:17:11.095Z,98149.70
2018-11-05T16:19:39.202Z,98152.81
2018-11-05T16:22:07.768Z,98151.86
2018-11-05T16:24:36.596Z,98148.50
2018-11-05T16:27:05.202Z,98146.33
2018-11-05T16:29:33.487Z,98151.75
2018-11-05T16:32:01.771Z,98155.72
2018-11-05T16:34:29.867Z,98154.52
2018-11-05T16:36:57.974Z,98148.39
2018-11-05T16:39:26.174Z,98148.05
2018-11-05T16:41:54.339Z,98148.52
2018-11-05T16:44:22.400Z,98152.62
2018-11-05T16:46:50.886Z,98149.98
2018-11-05T16:49:19.047Z,98152.27
2018-11-05T16:51:47.204Z,98157.19
2018-11-05T16:54:15.383Z,98151.56
2018-11-05T16:56:43.742Z,98156.84
2018-11-05T16:59:11.950Z,98154.67
2018-11-05T17:01:40.352Z,98149.86
2018-11-05T17:04:08.687Z,98149.05
2018-11-05T17:06:37.210Z,98148.67
2018-11-05T17:09:07.622Z,98149.65
2018-11-05T17:11:35.921Z,98156.26
2018-11-05T17:14:04.033Z,98159.38
2018-11-05T17:16:32.127Z,98152.42
2018-11-05T17:19:00.558Z,98148.94
2018-11-05T17:21:28.651Z,98153.23
2018-11-05T17:23:56.699Z,98156.39
2018-11-05T17:26:24.890Z,98149.78
2018-11-05T17:28:52.850Z,98151.92
2018-11-05T17:31:21.016Z,98155.06
2018-11-05T17:33:49.134Z,98151.92
2018-11-05T17:36:17.215Z,98147.14
2018-11-05T17:38:45.310Z,98146.63
2018-11-05T17:41:13.411Z,98148.94
2018-11-05T17:43:42.297Z,98152.42
2018-11-05T17:46:10.354Z,98152.89
2018-11-05T17:48:38.436Z,98157.33
2018-11-05T17:51:07.187Z,98150.04
2018-11-05T17:53:35.664Z,98147.40
2018-11-05T17:56:03.735Z,98152.17
2018-11-05T17:58:32.235Z,98157.46
2018-11-05T18:01:00.419Z,98150.64
2018-11-05T18:03:28.619Z,98157.97
2018-11-05T18:05:56.722Z,98158.57
2018-11-05T18:08:24.875Z,98151.25
2018-11-05T18:10:53.015Z,98151.25
2018-11-05T18:13:21.101Z,98153.05
2018-11-05T18:15:49.735Z,98156.28
2018-11-05T18:18:17.927Z,98149.34
2018-11-05T18:20:46.177Z,98144.91
2018-11-05T18:23:14.801Z,98149.34
2018-11-05T18:25:42.999Z,98149.34
2018-11-05T18:28:11.147Z,98145.38
2018-11-05T18:30:39.216Z,98145.51
2018-11-05T18:33:07.322Z,98143.21
2018-11-05T18:35:35.430Z,98148.15
2018-11-05T18:38:04.063Z,98145.98
2018-11-05T18:40:32.087Z,98146.11
2018-11-05T18:43:00.288Z,98143.00
2018-11-05T18:45:28.415Z,98143.47
2018-11-05T18:47:56.470Z,98140.83
2018-11-05T18:50:24.644Z,98138.19
2018-11-05T18:52:52.758Z,98140.83
2018-11-05T18:55:20.927Z,98135.20
2018-11-05T18:57:49.051Z,98140.11
2018-11-05T19:00:21.042Z,98148.41
2018-11-05T19:02:49.785Z,98152.84
2018-11-05T19:05:18.432Z,98146.38
2018-11-05T19:07:46.837Z,98152.97
2018-11-05T19:10:14.976Z,98149.48
2018-11-05T19:12:43.145Z,98147.31
2018-11-05T19:15:12.770Z,98149.02
2018-11-05T19:17:41.252Z,98149.95
2018-11-05T19:20:09.870Z,98145.66
2018-11-05T19:22:38.549Z,98148.77
2018-11-05T19:25:08.542Z,98150.59
2018-11-05T19:27:37.199Z,98147.58
2018-11-05T19:30:08.335Z,98144.46
2018-11-05T19:32:36.517Z,98153.70
2018-11-05T19:35:05.539Z,98155.50
2018-11-05T19:37:34.657Z,98152.86
2018-11-05T19:40:02.782Z,98155.16
2018-11-05T19:42:31.173Z,98155.16
2018-11-05T19:44:59.130Z,98159.12
2018-11-05T19:47:27.276Z,98156.48
2018-11-05T19:49:55.411Z,98156.61
2018-11-05T19:52:23.622Z,98164.87
2018-11-05T19:54:51.812Z,98163.68
2018-11-05T19:57:20.101Z,98170.16
2018-11-05T19:59:48.218Z,98158.74
2018-11-05T20:02:16.438Z,98160.56
2018-11-05T20:04:44.534Z,98160.56
2018-11-05T20:07:12.672Z,98156.73
2018-11-05T20:09:40.851Z,98157.67
2018-11-05T20:12:09.049Z,98157.67
2018-11-05T20:14:37.131Z,98161.64
2018-11-05T20:17:05.850Z,98167.77
2018-11-05T20:19:33.959Z,98168.71
2018-11-05T20:22:02.131Z,98167.89
2018-11-05T20:24:30.240Z,98164.41
2018-11-05T20:26:58.300Z,98162.11
2018-11-05T20:29:26.399Z,98162.61
2018-11-05T20:31:55.793Z,98158.66
2018-11-05T20:34:23.820Z,98151.55
2018-11-05T20:36:52.829Z,98149.75
2018-11-05T20:39:21.041Z,98150.73
2018-11-05T20:41:49.112Z,98146.77
2018-11-05T20:44:17.484Z,98130.20
2018-11-05T20:46:45.679Z,98132.38
2018-11-05T20:49:13.649Z,98146.05
2018-11-05T20:51:41.747Z,98153.97
2018-11-05T20:54:09.912Z,98158.91
2018-11-05T20:56:38.157Z,98152.88
2018-11-05T20:59:06.230Z,98155.89
2018-11-05T21:01:34.375Z,98155.02
2018-11-05T21:04:02.506Z,98158.98
2018-11-05T21:06:30.656Z,98167.41
2018-11-05T21:08:58.879Z,98163.56
2018-11-05T21:11:27.747Z,98162.59
2018-11-05T21:13:56.545Z,98161.75
2018-11-05T21:16:24.700Z,98154.33
2018-11-05T21:18:52.839Z,98155.99
2018-11-05T21:21:21.060Z,98158.29
2018-11-05T21:23:49.095Z,98148.20
2018-11-05T21:26:17.249Z,98152.16
2018-11-05T21:28:45.380Z,98161.88
2018-11-05T21:31:13.482Z,98162.84
2018-11-05T21:33:41.743Z,98170.30
2018-11-05T21:36:09.925Z,98168.12
2018-11-05T21:38:38.123Z,98169.08
2018-11-05T21:41:06.580Z,98162.00
2018-11-05T21:43:34.725Z,98159.02
2018-11-05T21:46:02.961Z,98156.00
2018-11-05T21:48:31.167Z,98161.91
2018-11-05T21:50:59.301Z,98167.88
2018-11-05T21:53:27.412Z,98168.01
2018-11-05T21:55:55.530Z,98164.90
2018-11-05T21:58:23.779Z,98163.70
2018-11-05T22:00:51.951Z,98165.02
2018-11-05T22:03:20.132Z,98162.86
2018-11-05T22:05:48.234Z,98155.91
2018-11-05T22:08:16.415Z,98148.94
2018-11-05T22:10:44.545Z,98141.86
2018-11-05T22:13:12.730Z,98143.19
2018-11-05T22:15:45.015Z,98135.73
2018-11-05T22:18:14.126Z,98137.19
2018-11-05T22:20:42.541Z,98137.05
2018-11-05T22:23:10.766Z,98131.43
2018-11-05T22:25:39.351Z,98138.88
2018-11-05T22:28:07.855Z,98140.67
2018-11-05T22:30:36.226Z,98138.03
2018-11-05T22:33:04.614Z,98141.61
2018-11-05T22:35:33.481Z,98142.46
2018-11-05T22:38:01.652Z,98142.46
2018-11-05T22:40:29.733Z,98149.06
2018-11-05T22:42:57.906Z,98146.08
2018-11-05T22:45:26.054Z,98154.34
2018-11-05T22:47:54.223Z,98148.22
2018-11-05T22:50:22.524Z,98150.38
2018-11-05T22:52:50.471Z,98148.12
2018-11-05T22:55:18.625Z,98146.89
2018-11-05T22:57:46.778Z,98142.46
2018-11-05T23:00:21.432Z,98137.66
2018-11-05T23:02:54.829Z,98136.70
2018-11-05T23:05:23.127Z,98137.19
2018-11-05T23:07:52.263Z,98141.61
2018-11-05T23:10:20.403Z,98146.89
2018-11-05T23:12:48.552Z,98147.02
2018-11-05T23:15:16.955Z,98151.48
2018-11-05T23:17:45.352Z,98150.98
2018-11-05T23:20:13.419Z,98150.51
2018-11-05T23:22:42.195Z,98151.36
2018-11-05T23:25:10.284Z,98146.55
2018-11-05T23:27:38.449Z,98150.64
2018-11-05T23:30:09.391Z,98158.91
2018-11-05T23:32:38.170Z,98158.56
2018-11-05T23:35:06.951Z,98162.05
2018-11-05T23:37:35.191Z,98160.85
2018-11-05T23:40:03.505Z,98170.91
2018-11-05T23:42:31.637Z,98176.19
2018-11-05T23:44:59.714Z,98180.15
2018-11-05T23:47:28.324Z,98183.77
2018-11-05T23:49:56.734Z,98189.89
2018-11-05T23:52:25.286Z,98178.48
2018-11-05T23:54:53.578Z,98182.91
2018-11-05T23:57:22.087Z,98177.29
2018-11-05T23:59:50.184Z,98174.78
